首页
METAR-TAF:

METAR-TAF

机场 :

大马士革国际机场

大马士革, 叙利亚

纬度: 33-25N, 经度: 036-31E, 海拔: 608米

当前天气观测

该预报发布于15分钟前的16:00 UTC
风速20节,风向西转西南
温度 11°C
湿度 82%
气压 1011 hPa
能见度10公里或以上
少量云层高于3000英尺
散云层高于10000英尺

METAR: OSDI 121600Z 24020KT 9999 FEW030 SCT100 11/08 Q1011

时间: 18:15 (16:15 UTC)

预报

预报有效从12日的 12点(UTC)到 13日的 18点(UTC)
风速10节,风向北转东北
能见度10公里或以上
少量云层高于3000英尺
散云层高于10000英尺
短暂存在
从 12日的 18点(UTC)到 13日的 18点(UTC)
风速15节,风向西南,有时为25节阵风
能見度: 6000
少量云层高于2500英尺, 积雨云.
散云层高于3000英尺
阴天层高于9000英尺
阵雨

TAF: OSDI 1212/1318 03010KT 9999 FEW030 SCT100 TEMPO 1218/1318 22015G25KT 6000 SHRA FEW025CB SCT030 OVC090

超过4000个机场的气象观测和天气预报(METAR&TAF报告)。

可查询的气象台以黄色和红色小点在地图上表示。

将鼠标移到小点上方,可查看气象台名称。

然后点击查看天气观测和预报。

如需切换地图:点击带黑十字的绿色按钮放大地图;点击带横线的绿色按钮缩小地图;或者点击绿色箭头查看邻近地区的地图。


METAR-TAF: